Time;durP1;ratioP1;P1;durP2;ratioP2;P2;SDS_P1;SDS_P2;PMS_P1;PMS_P2;Temp;Humidity;BMP_temperature;BMP_pressure;BME280_temperature;BME280_humidity;BME280_pressure;Samples;Min_cycle;Max_cycle;Signal;HPM_P1;HPM_P2
2023/08/31 00:01:09;;;;;;;0.70;0.70;;;21.60;67.10;;;;;;5026684;28;20072;-83
2023/08/31 00:03:35;;;;;;;0.65;0.60;;;21.50;67.10;;;;;;5026078;28;20073;-84
2023/08/31 00:06:04;;;;;;;0.95;0.70;;;21.60;67.20;;;;;;5024008;28;20072;-84
2023/08/31 00:08:29;;;;;;;1.38;0.85;;;21.60;67.10;;;;;;5024201;28;20125;-84
2023/08/31 00:10:56;;;;;;;0.60;0.60;;;21.50;67.10;;;;;;5026782;28;20136;-84
2023/08/31 00:13:22;;;;;;;1.90;0.90;;;21.50;67.40;;;;;;5026246;28;20041;-84
2023/08/31 00:15:47;;;;;;;0.85;0.73;;;21.60;67.40;;;;;;5026632;28;20034;-84
2023/08/31 00:18:16;;;;;;;0.80;0.80;;;21.50;68.20;;;;;;5021472;28;20041;-83
2023/08/31 00:20:41;;;;;;;0.90;0.70;;;21.50;67.50;;;;;;5023991;28;20041;-84
2023/08/31 00:23:07;;;;;;;0.80;0.70;;;21.60;67.70;;;;;;5025494;28;20044;-83
2023/08/31 00:25:33;;;;;;;1.20;0.80;;;21.60;67.60;;;;;;5026144;28;20046;-84
2023/08/31 00:28:04;;;;;;;1.83;1.15;;;21.50;67.50;;;;;;5024486;28;20056;-84
2023/08/31 00:30:31;;;;;;;1.17;0.90;;;21.60;67.60;;;;;;5022099;28;20065;-84
2023/08/31 00:33:00;;;;;;;1.83;0.80;;;21.60;67.60;;;;;;5026291;28;20049;-84
2023/08/31 00:35:27;;;;;;;1.05;0.70;;;21.50;67.50;;;;;;5022245;28;20057;-84
2023/08/31 00:37:58;;;;;;;1.38;0.50;;;21.50;67.50;;;;;;5021472;28;20392;-85
2023/08/31 00:40:23;;;;;;;0.50;0.50;;;21.60;67.60;;;;;;5024397;28;20091;-84
2023/08/31 00:42:49;;;;;;;1.52;0.60;;;21.60;67.70;;;;;;5028095;28;20041;-84
2023/08/31 00:45:15;;;;;;;1.00;0.90;;;21.60;67.60;;;;;;5025218;28;20095;-83
2023/08/31 00:47:41;;;;;;;1.30;0.65;;;21.60;68.50;;;;;;5021844;28;20041;-84
2023/08/31 00:50:08;;;;;;;1.45;0.88;;;21.60;67.70;;;;;;5022681;28;20084;-84
2023/08/31 00:52:34;;;;;;;0.80;0.80;;;21.50;67.80;;;;;;5025074;28;20080;-84
2023/08/31 00:54:59;;;;;;;0.60;0.50;;;21.50;67.70;;;;;;5023764;28;20053;-84
2023/08/31 00:57:30;;;;;;;0.85;0.80;;;21.60;67.80;;;;;;5023144;28;20056;-84
2023/08/31 00:59:58;;;;;;;1.17;0.75;;;21.50;67.90;;;;;;5007007;28;20102;-84
2023/08/31 01:02:40;;;;;;;0.73;0.60;;;21.60;68.10;;;;;;5018440;28;20526;-84
2023/08/31 01:05:13;;;;;;;0.70;0.70;;;21.60;68.70;;;;;;5005180;28;20052;-84
2023/08/31 01:07:52;;;;;;;1.00;0.60;;;21.60;68.90;;;;;;5019793;28;20037;-84
2023/08/31 01:10:33;;;;;;;0.93;0.65;;;21.60;69.40;;;;;;5039657;28;20025;-84
2023/08/31 01:13:11;;;;;;;1.13;0.90;;;21.60;69.90;;;;;;5025242;28;20083;-84
2023/08/31 01:15:36;;;;;;;1.05;0.95;;;21.60;69.90;;;;;;5022498;28;20044;-84
2023/08/31 01:18:02;;;;;;;1.08;0.80;;;21.60;70.00;;;;;;5023187;28;20121;-84
2023/08/31 01:21:06;;;;;;;0.63;0.47;;;21.60;69.80;;;;;;5024794;28;20084;-84
2023/08/31 01:23:53;;;;;;;0.70;0.63;;;21.60;69.80;;;;;;5023264;28;20500;-84
2023/08/31 01:26:19;;;;;;;0.85;0.80;;;21.60;69.70;;;;;;5019696;28;20495;-84
2023/08/31 01:28:46;;;;;;;1.95;0.60;;;21.60;69.60;;;;;;5021871;28;20422;-84
2023/08/31 01:31:12;;;;;;;0.70;0.65;;;21.60;69.60;;;;;;5022082;28;20069;-84
2023/08/31 01:33:37;;;;;;;1.20;0.80;;;21.60;69.50;;;;;;5019704;28;20511;-84
2023/08/31 01:36:05;;;;;;;1.77;0.70;;;21.60;69.50;;;;;;5018716;28;20091;-84
2023/08/31 01:38:31;;;;;;;0.47;0.40;;;21.60;69.40;;;;;;5022490;28;20049;-84
2023/08/31 01:41:05;;;;;;;0.40;0.40;;;21.60;69.50;;;;;;5021260;28;20041;-84
2023/08/31 01:43:31;;;;;;;0.70;0.65;;;21.60;69.50;;;;;;5022370;28;20049;-84
2023/08/31 01:45:58;;;;;;;0.57;0.57;;;21.60;69.30;;;;;;5020280;28;20037;-84
2023/08/31 01:48:23;;;;;;;1.02;0.70;;;21.60;69.40;;;;;;5021806;28;20041;-83
2023/08/31 01:50:49;;;;;;;0.60;0.60;;;21.60;69.40;;;;;;5022766;28;20053;-84
2023/08/31 01:53:15;;;;;;;0.50;0.50;;;21.60;69.40;;;;;;5020562;28;20050;-82
2023/08/31 01:55:40;;;;;;;0.77;0.65;;;21.60;69.50;;;;;;5023992;28;20049;-84
2023/08/31 01:58:06;;;;;;;0.40;0.40;;;21.60;69.40;;;;;;5031501;28;20123;-84
2023/08/31 02:00:34;;;;;;;0.70;0.70;;;21.60;69.50;;;;;;5026076;28;20173;-84
2023/08/31 02:03:00;;;;;;;1.25;0.80;;;21.60;69.40;;;;;;5026398;28;20057;-84
2023/08/31 02:05:26;;;;;;;0.52;0.50;;;21.60;69.40;;;;;;5027401;28;20048;-84
2023/08/31 02:07:51;;;;;;;0.75;0.73;;;21.60;69.40;;;;;;5028843;28;20499;-84
2023/08/31 02:10:17;;;;;;;0.57;0.50;;;21.60;69.40;;;;;;5025519;28;20098;-84
2023/08/31 02:12:42;;;;;;;0.93;0.70;;;21.50;69.30;;;;;;5025048;28;20046;-84
2023/08/31 02:15:09;;;;;;;0.70;0.70;;;21.60;69.20;;;;;;5027777;28;20065;-84
2023/08/31 02:17:35;;;;;;;0.60;0.52;;;21.60;69.30;;;;;;5026242;28;20045;-84
2023/08/31 02:20:02;;;;;;;0.90;0.80;;;21.60;69.10;;;;;;5025961;28;20042;-84
2023/08/31 02:22:29;;;;;;;0.40;0.40;;;21.50;69.20;;;;;;5025475;28;20049;-84
2023/08/31 02:24:55;;;;;;;0.70;0.60;;;21.60;69.00;;;;;;5029391;28;20029;-83
2023/08/31 02:27:21;;;;;;;0.70;0.70;;;21.60;69.10;;;;;;5027827;28;20046;-83
2023/08/31 02:29:46;;;;;;;0.50;0.50;;;21.60;69.00;;;;;;5024375;28;20515;-84
2023/08/31 02:32:12;;;;;;;0.80;0.47;;;21.60;69.10;;;;;;5026175;28;20053;-80
2023/08/31 02:34:38;;;;;;;0.65;0.60;;;21.60;69.00;;;;;;5005210;28;20033;-84
2023/08/31 02:37:03;;;;;;;0.50;0.50;;;21.50;68.90;;;;;;5028003;28;20037;-85
2023/08/31 02:39:29;;;;;;;0.70;0.52;;;21.60;68.80;;;;;;5026868;28;20107;-84
2023/08/31 02:41:55;;;;;;;0.47;0.45;;;21.60;68.90;;;;;;5026892;28;20037;-84
2023/08/31 02:44:20;;;;;;;1.35;0.57;;;21.60;68.80;;;;;;5026600;28;20034;-84
2023/08/31 02:46:46;;;;;;;0.60;0.60;;;21.50;68.70;;;;;;5025718;28;20065;-84
2023/08/31 02:49:12;;;;;;;0.63;0.63;;;21.60;68.90;;;;;;5028633;28;20423;-84
2023/08/31 02:51:37;;;;;;;0.82;0.50;;;21.50;68.70;;;;;;5025923;28;20112;-84
2023/08/31 02:54:03;;;;;;;0.50;0.50;;;21.50;68.60;;;;;;5024330;28;20128;-84
2023/08/31 02:56:29;;;;;;;0.38;0.38;;;21.50;68.60;;;;;;5028041;28;20419;-84
2023/08/31 02:58:54;;;;;;;0.60;0.60;;;21.50;68.70;;;;;;5027558;28;20055;-83
2023/08/31 03:01:20;;;;;;;0.65;0.60;;;21.50;68.80;;;;;;5025255;28;20033;-83
2023/08/31 03:03:46;;;;;;;0.70;0.57;;;21.60;68.50;;;;;;5027382;28;20076;-84
2023/08/31 03:06:12;;;;;;;0.60;0.60;;;21.50;69.00;;;;;;5021675;28;20038;-83
2023/08/31 03:08:37;;;;;;;1.00;0.50;;;21.50;69.00;;;;;;5024415;28;20056;-84
2023/08/31 03:11:04;;;;;;;0.50;0.50;;;21.50;68.80;;;;;;5026829;28;20041;-83
2023/08/31 03:13:30;;;;;;;0.35;0.30;;;21.60;68.90;;;;;;5027436;28;20034;-84
2023/08/31 03:15:56;;;;;;;0.55;0.50;;;21.50;68.70;;;;;;5041557;28;20048;-84
2023/08/31 03:18:22;;;;;;;0.60;0.60;;;21.50;68.80;;;;;;5026028;28;20029;-83
2023/08/31 03:20:48;;;;;;;0.50;0.50;;;21.50;68.60;;;;;;5027544;28;20067;-87
2023/08/31 03:23:13;;;;;;;0.50;0.50;;;21.50;69.00;;;;;;5023868;28;20033;-87
2023/08/31 03:25:39;;;;;;;0.60;0.60;;;21.50;68.80;;;;;;5025347;28;20110;-87
2023/08/31 03:28:04;;;;;;;0.63;0.55;;;21.50;69.00;;;;;;5027778;28;20125;-87
2023/08/31 03:30:30;;;;;;;0.60;0.50;;;21.50;69.00;;;;;;5022593;28;20061;-85
2023/08/31 03:32:55;;;;;;;0.77;0.77;;;21.50;68.80;;;;;;4676791;28;9999905;-85
2023/08/31 03:35:26;;;;;;;0.60;0.60;;;21.60;68.70;;;;;;5022054;28;20508;-86
2023/08/31 03:37:52;;;;;;;0.60;0.60;;;21.60;69.00;;;;;;5023586;28;20069;-86
2023/08/31 03:40:17;;;;;;;0.60;0.60;;;21.60;68.90;;;;;;5019984;28;20087;-87
2023/08/31 03:42:43;;;;;;;0.50;0.50;;;21.60;68.90;;;;;;5023834;28;20065;-86
2023/08/31 03:45:09;;;;;;;1.15;0.60;;;21.60;68.90;;;;;;5023362;28;20041;-86
2023/08/31 03:47:34;;;;;;;0.90;0.70;;;21.60;69.00;;;;;;5021667;28;20095;-87
2023/08/31 03:50:00;;;;;;;0.70;0.65;;;21.50;68.90;;;;;;5024062;28;20103;-84
2023/08/31 03:52:26;;;;;;;0.88;0.50;;;21.60;69.00;;;;;;5023567;28;20181;-84
2023/08/31 03:54:52;;;;;;;0.50;0.50;;;21.60;68.50;;;;;;5024533;28;20051;-85
2023/08/31 03:57:18;;;;;;;0.57;0.40;;;21.60;68.70;;;;;;5033732;28;20132;-83
2023/08/31 03:59:43;;;;;;;0.60;0.60;;;21.60;68.40;;;;;;5024220;28;20045;-87
2023/08/31 04:02:09;;;;;;;0.38;0.38;;;21.60;68.80;;;;;;5024668;28;20029;-87
2023/08/31 04:04:34;;;;;;;0.50;0.50;;;21.60;68.70;;;;;;5022761;28;20525;-86
2023/08/31 04:07:00;;;;;;;0.50;0.47;;;21.60;68.60;;;;;;5023445;28;20042;-86
2023/08/31 04:09:26;;;;;;;1.95;0.50;;;21.60;68.40;;;;;;5022061;28;20576;-84
2023/08/31 04:11:51;;;;;;;0.50;0.50;;;21.60;68.50;;;;;;5023941;28;20325;-86
2023/08/31 04:14:18;;;;;;;0.40;0.40;;;21.60;68.30;;;;;;5021551;28;20046;-85
2023/08/31 04:16:44;;;;;;;0.73;0.43;;;21.60;68.40;;;;;;5017906;28;20041;-85
2023/08/31 04:19:09;;;;;;;0.50;0.50;;;21.60;68.20;;;;;;5022293;28;20041;-84
2023/08/31 04:21:36;;;;;;;0.60;0.60;;;21.60;68.00;;;;;;5020913;28;20045;-88
2023/08/31 04:24:01;;;;;;;0.47;0.47;;;21.60;67.90;;;;;;5022710;28;20037;-84
2023/08/31 04:26:27;;;;;;;0.65;0.60;;;21.60;67.80;;;;;;5022015;28;20080;-84
2023/08/31 04:28:53;;;;;;;1.02;0.60;;;21.60;68.00;;;;;;5023020;28;20060;-85
2023/08/31 04:31:18;;;;;;;0.60;0.40;;;21.60;67.80;;;;;;5024252;28;20478;-86
2023/08/31 04:33:45;;;;;;;0.60;0.60;;;21.60;67.70;;;;;;5012411;28;20080;-86
2023/08/31 04:36:10;;;;;;;0.82;0.65;;;21.60;67.60;;;;;;5020481;28;20650;-86
2023/08/31 04:38:37;;;;;;;0.80;0.70;;;21.60;67.70;;;;;;5018127;28;20132;-84
2023/08/31 04:41:03;;;;;;;0.60;0.60;;;21.60;67.70;;;;;;5018868;28;20122;-85
2023/08/31 04:43:29;;;;;;;0.50;0.50;;;21.60;67.70;;;;;;5021272;28;20514;-86
2023/08/31 04:45:54;;;;;;;0.73;0.50;;;21.60;67.60;;;;;;5021175;28;20077;-86
2023/08/31 04:48:20;;;;;;;0.47;0.40;;;21.60;67.50;;;;;;5020782;28;20178;-86
2023/08/31 04:50:46;;;;;;;0.47;0.38;;;21.60;67.50;;;;;;5009463;28;20072;-85
2023/08/31 04:53:11;;;;;;;0.40;0.40;;;21.60;67.50;;;;;;5020576;28;20166;-86
2023/08/31 04:55:37;;;;;;;0.68;0.68;;;21.60;68.40;;;;;;5020740;28;20659;-85
2023/08/31 04:58:03;;;;;;;0.45;0.45;;;21.60;67.80;;;;;;5023738;28;20036;-85
2023/08/31 05:00:29;;;;;;;0.80;0.80;;;21.60;67.70;;;;;;5023865;28;20045;-86
2023/08/31 05:02:55;;;;;;;0.40;0.40;;;21.60;67.70;;;;;;5020933;28;20053;-86
2023/08/31 05:05:21;;;;;;;0.38;0.38;;;21.60;67.50;;;;;;5021550;28;20744;-86
2023/08/31 05:07:46;;;;;;;0.80;0.60;;;21.60;67.50;;;;;;5021454;28;20053;-86
2023/08/31 05:10:12;;;;;;;0.40;0.40;;;21.60;67.80;;;;;;5019352;28;20046;-86
2023/08/31 05:12:38;;;;;;;0.40;0.40;;;21.60;67.70;;;;;;5020862;28;20128;-87
2023/08/31 05:15:04;;;;;;;0.52;0.50;;;21.60;68.10;;;;;;5021507;28;20045;-83
2023/08/31 05:17:30;;;;;;;0.50;0.50;;;21.60;67.60;;;;;;5022133;28;20107;-83
2023/08/31 05:19:56;;;;;;;0.75;0.50;;;21.60;68.00;;;;;;5022888;28;20091;-86
2023/08/31 05:22:22;;;;;;;1.88;1.02;;;21.60;67.30;;;;;;5022983;28;20061;-85
2023/08/31 05:24:48;;;;;;;1.92;1.17;;;21.40;66.80;;;;;;5021393;28;20388;-85
2023/08/31 05:27:13;;;;;;;3.03;1.50;;;21.20;67.30;;;;;;5019365;28;20129;-86
2023/08/31 05:29:39;;;;;;;3.45;1.45;;;21.00;67.70;;;;;;5020988;28;20049;-86
2023/08/31 05:32:04;;;;;;;2.67;1.13;;;20.90;67.90;;;;;;5019428;28;20511;-86
2023/08/31 05:34:32;;;;;;;1.88;1.45;;;20.80;68.10;;;;;;5020611;28;20156;-85
2023/08/31 05:36:58;;;;;;;3.15;1.38;;;20.80;68.60;;;;;;5018081;28;20048;-86
2023/08/31 05:39:23;;;;;;;2.13;1.13;;;20.70;68.70;;;;;;5022424;28;20128;-86
2023/08/31 05:41:49;;;;;;;2.05;1.35;;;20.70;68.90;;;;;;5019100;28;20052;-85
2023/08/31 05:44:14;;;;;;;1.75;1.25;;;20.60;69.00;;;;;;5019220;28;20049;-85
2023/08/31 05:46:40;;;;;;;2.47;1.63;;;20.60;69.20;;;;;;5020503;28;20056;-86
2023/08/31 05:49:07;;;;;;;3.13;1.23;;;20.60;69.30;;;;;;5000728;28;20488;-84
2023/08/31 05:51:32;;;;;;;2.80;1.40;;;20.60;69.40;;;;;;5020386;28;20107;-84
2023/08/31 05:53:58;;;;;;;2.05;1.20;;;20.60;69.60;;;;;;5021098;28;20388;-84
2023/08/31 05:56:23;;;;;;;2.75;1.65;;;20.60;69.60;;;;;;5004826;28;20514;-84
2023/08/31 05:58:50;;;;;;;4.55;1.20;;;20.50;69.80;;;;;;5016048;28;20030;-86
2023/08/31 06:01:15;;;;;;;1.60;1.17;;;20.50;69.90;;;;;;5004434;28;20042;-86
2023/08/31 06:03:48;;;;;;;2.95;1.20;;;20.50;70.00;;;;;;5018077;28;20522;-85
2023/08/31 06:06:14;;;;;;;1.60;1.20;;;20.40;70.40;;;;;;5039350;28;20057;-83
2023/08/31 06:08:42;;;;;;;1.85;1.25;;;20.50;69.90;;;;;;5016115;28;20064;-83
2023/08/31 06:11:08;;;;;;;2.85;1.77;;;20.50;70.20;;;;;;5018539;28;20088;-82
2023/08/31 06:13:33;;;;;;;2.00;1.15;;;20.40;70.90;;;;;;5022447;28;20104;-84
2023/08/31 06:15:59;;;;;;;2.13;1.25;;;20.50;71.00;;;;;;5020603;28;20054;-85
2023/08/31 06:18:25;;;;;;;3.17;1.73;;;20.60;71.50;;;;;;5017796;28;20042;-86
2023/08/31 06:20:51;;;;;;;2.55;1.15;;;20.50;71.50;;;;;;5019835;28;20064;-86
2023/08/31 06:23:17;;;;;;;2.85;1.35;;;20.50;71.40;;;;;;5020090;28;20084;-86
2023/08/31 06:25:42;;;;;;;1.52;0.85;;;20.60;71.10;;;;;;5021790;28;20038;-86
2023/08/31 06:28:08;;;;;;;1.92;1.17;;;20.50;71.50;;;;;;5017816;28;20050;-86
2023/08/31 06:30:34;;;;;;;2.17;1.17;;;20.40;71.80;;;;;;5022342;28;20548;-84
2023/08/31 06:33:00;;;;;;;1.95;1.23;;;20.40;72.30;;;;;;5013914;28;20060;-85
2023/08/31 06:35:26;;;;;;;2.92;1.52;;;20.50;72.00;;;;;;5017811;28;20042;-84
2023/08/31 06:37:51;;;;;;;1.63;1.00;;;20.50;72.80;;;;;;5003795;28;20088;-84
2023/08/31 06:40:17;;;;;;;1.63;1.00;;;20.50;72.50;;;;;;5015657;28;20033;-84
2023/08/31 06:42:42;;;;;;;2.83;1.30;;;20.50;72.90;;;;;;5025790;28;20136;-84
2023/08/31 06:45:08;;;;;;;2.13;1.13;;;20.50;73.20;;;;;;5018764;28;20072;-83
2023/08/31 06:47:35;;;;;;;1.92;1.33;;;20.50;73.60;;;;;;5018811;28;20057;-84
2023/08/31 06:50:00;;;;;;;3.13;1.30;;;20.50;73.70;;;;;;5019469;28;20115;-85
2023/08/31 06:52:26;;;;;;;3.78;1.38;;;20.40;74.20;;;;;;5025476;28;20046;-84
2023/08/31 06:54:56;;;;;;;1.77;1.55;;;20.60;74.20;;;;;;5025850;28;20092;-83
2023/08/31 06:57:23;;;;;;;1.83;1.15;;;20.60;74.30;;;;;;5030079;28;20041;-84
2023/08/31 06:59:48;;;;;;;4.32;1.10;;;20.60;74.20;;;;;;5029231;28;20033;-83
2023/08/31 07:02:14;;;;;;;2.83;1.13;;;20.60;74.20;;;;;;5029547;28;20044;-84
2023/08/31 07:04:40;;;;;;;2.63;1.27;;;20.70;73.90;;;;;;5028537;28;20044;-83
2023/08/31 07:07:05;;;;;;;2.50;1.70;;;20.70;74.30;;;;;;5028759;28;20042;-83
2023/08/31 07:09:31;;;;;;;1.52;1.08;;;20.80;74.10;;;;;;5029244;28;20036;-84
2023/08/31 07:11:58;;;;;;;3.10;1.17;;;20.80;74.10;;;;;;5027143;28;20049;-84
2023/08/31 07:14:24;;;;;;;1.77;1.30;;;20.80;74.10;;;;;;5028098;28;20120;-83
2023/08/31 07:16:50;;;;;;;2.13;1.10;;;20.80;74.00;;;;;;5027446;28;20080;-83
2023/08/31 07:19:15;;;;;;;1.38;1.10;;;20.80;73.90;;;;;;5030648;28;20068;-83
2023/08/31 07:21:41;;;;;;;1.60;1.00;;;20.90;73.80;;;;;;5028075;28;20065;-83
2023/08/31 07:24:07;;;;;;;1.17;0.82;;;20.90;73.80;;;;;;5027403;28;20045;-83
2023/08/31 07:26:32;;;;;;;3.83;1.00;;;20.90;73.70;;;;;;5024237;28;20049;-83
2023/08/31 07:28:58;;;;;;;2.13;1.20;;;20.90;73.70;;;;;;5027046;28;20533;-84
2023/08/31 07:31:23;;;;;;;1.52;0.95;;;20.90;73.80;;;;;;5023219;28;20069;-84
2023/08/31 07:33:49;;;;;;;1.45;1.00;;;20.90;73.50;;;;;;5029041;28;20042;-83
2023/08/31 07:36:15;;;;;;;1.73;1.20;;;20.90;73.80;;;;;;5026942;28;20053;-84
2023/08/31 07:38:40;;;;;;;2.13;1.10;;;20.90;73.70;;;;;;5028171;28;20050;-83
2023/08/31 07:41:06;;;;;;;1.27;0.90;;;20.90;73.60;;;;;;5027077;28;20038;-84
2023/08/31 07:43:32;;;;;;;1.73;1.00;;;20.90;73.70;;;;;;5028912;28;20144;-84
2023/08/31 07:45:57;;;;;;;1.92;0.70;;;20.90;73.80;;;;;;5029341;28;20507;-84
2023/08/31 07:48:23;;;;;;;1.15;0.98;;;20.90;73.80;;;;;;5026704;28;20450;-84
2023/08/31 07:50:48;;;;;;;1.13;0.82;;;20.90;73.80;;;;;;5025578;28;20041;-83
2023/08/31 07:53:14;;;;;;;1.45;1.27;;;20.90;73.80;;;;;;5029109;28;20057;-84
2023/08/31 07:55:40;;;;;;;1.73;0.80;;;20.90;73.80;;;;;;5027798;28;20045;-82
2023/08/31 07:58:06;;;;;;;1.13;0.80;;;21.00;73.80;;;;;;5026129;28;20046;-83
2023/08/31 08:00:31;;;;;;;1.00;0.80;;;21.00;73.90;;;;;;5028178;28;20038;-84
2023/08/31 08:02:57;;;;;;;1.40;0.93;;;20.90;74.00;;;;;;5026335;28;20045;-84
2023/08/31 08:05:22;;;;;;;1.58;1.00;;;21.00;73.90;;;;;;5022474;28;20095;-84
2023/08/31 08:07:48;;;;;;;3.90;0.90;;;21.00;74.00;;;;;;5027578;28;20176;-83
2023/08/31 08:10:14;;;;;;;1.17;0.80;;;21.00;74.10;;;;;;5029127;28;20045;-84
2023/08/31 08:12:40;;;;;;;1.67;1.05;;;21.00;74.00;;;;;;5028000;28;20121;-84
2023/08/31 08:15:08;;;;;;;1.10;0.73;;;21.00;74.10;;;;;;5027337;28;20043;-84
2023/08/31 08:17:33;;;;;;;1.02;0.85;;;21.00;74.20;;;;;;5026768;28;20033;-84
2023/08/31 08:19:59;;;;;;;2.00;0.93;;;21.00;74.90;;;;;;5026912;28;20099;-84
2023/08/31 08:22:25;;;;;;;1.65;0.90;;;21.00;74.20;;;;;;5029038;28;20095;-84
2023/08/31 08:24:50;;;;;;;0.80;0.80;;;21.00;74.40;;;;;;5029157;28;20038;-83
2023/08/31 08:27:17;;;;;;;1.00;0.95;;;21.00;74.40;;;;;;5022153;28;20050;-84
2023/08/31 08:29:43;;;;;;;1.13;0.98;;;21.00;74.40;;;;;;5026745;28;20042;-83
2023/08/31 08:32:09;;;;;;;0.95;0.80;;;21.00;74.40;;;;;;5024187;28;20052;-84
2023/08/31 08:34:34;;;;;;;1.70;0.90;;;21.00;74.40;;;;;;5027657;28;20398;-84
2023/08/31 08:37:00;;;;;;;0.80;0.80;;;21.00;74.40;;;;;;5029990;28;20037;-84
2023/08/31 08:39:25;;;;;;;1.50;1.15;;;21.00;74.40;;;;;;5027095;28;20114;-84
2023/08/31 08:41:52;;;;;;;0.70;0.70;;;21.00;74.40;;;;;;5027638;28;20060;-84
2023/08/31 08:44:17;;;;;;;0.73;0.57;;;21.10;74.50;;;;;;5027033;28;20466;-84
2023/08/31 08:46:43;;;;;;;1.00;0.60;;;21.10;74.50;;;;;;5024269;28;20570;-82
2023/08/31 08:49:10;;;;;;;1.40;0.70;;;21.10;74.50;;;;;;5026201;28;20033;-84
2023/08/31 08:51:36;;;;;;;0.73;0.50;;;21.00;74.40;;;;;;5026888;28;20515;-84
2023/08/31 08:54:01;;;;;;;0.80;0.65;;;21.10;74.50;;;;;;5028313;28;20064;-84
2023/08/31 08:56:27;;;;;;;1.05;0.68;;;21.10;74.60;;;;;;5028163;28;20049;-84
2023/08/31 08:58:52;;;;;;;0.80;0.60;;;21.10;74.70;;;;;;5025594;28;20051;-83
2023/08/31 09:01:22;;;;;;;0.95;0.55;;;21.10;75.10;;;;;;5029741;28;20592;-84
2023/08/31 09:03:49;;;;;;;0.88;0.65;;;21.10;75.00;;;;;;5027474;28;20507;-84
2023/08/31 09:06:14;;;;;;;1.35;0.55;;;21.10;75.20;;;;;;5028223;28;20168;-84
2023/08/31 09:08:40;;;;;;;0.85;0.85;;;21.10;75.40;;;;;;5026263;28;20503;-84
2023/08/31 09:11:05;;;;;;;1.02;0.70;;;21.10;75.50;;;;;;5024585;28;20068;-84
2023/08/31 09:13:33;;;;;;;0.70;0.70;;;21.10;75.90;;;;;;5028211;28;20049;-84
2023/08/31 09:15:59;;;;;;;0.90;0.70;;;21.10;76.00;;;;;;5026593;28;20042;-84
2023/08/31 09:18:27;;;;;;;0.65;0.60;;;21.10;76.20;;;;;;5023210;28;20084;-84
2023/08/31 09:20:53;;;;;;;0.47;0.47;;;21.10;75.90;;;;;;5026334;28;20582;-84
2023/08/31 09:23:19;;;;;;;0.75;0.73;;;21.10;76.20;;;;;;5026946;28;20116;-84
2023/08/31 09:25:48;;;;;;;0.55;0.52;;;21.10;76.00;;;;;;5025763;28;20041;-81
2023/08/31 09:28:15;;;;;;;0.80;0.57;;;21.10;76.90;;;;;;5027167;28;20038;-84
2023/08/31 09:30:41;;;;;;;0.75;0.60;;;21.10;76.00;;;;;;5026133;28;20396;-84
2023/08/31 09:33:10;;;;;;;0.50;0.50;;;21.10;76.00;;;;;;5021989;28;20100;-84
2023/08/31 09:35:51;;;;;;;0.98;0.50;;;21.10;76.00;;;;;;5025644;28;20491;-84
2023/08/31 09:38:16;;;;;;;0.70;0.70;;;21.20;76.10;;;;;;5024772;28;20503;-84
2023/08/31 09:40:42;;;;;;;0.52;0.52;;;21.10;76.00;;;;;;5026556;28;20044;-84
2023/08/31 09:43:07;;;;;;;1.15;0.60;;;21.10;76.90;;;;;;5025101;28;20044;-85
2023/08/31 09:45:34;;;;;;;0.63;0.63;;;21.20;76.50;;;;;;5023106;28;20818;-84
2023/08/31 09:48:01;;;;;;;0.50;0.50;;;21.20;76.10;;;;;;5021698;28;20057;-84
2023/08/31 09:50:33;;;;;;;0.70;0.70;;;21.20;76.00;;;;;;5021703;28;20049;-84
2023/08/31 09:53:03;;;;;;;0.47;0.47;;;21.20;76.20;;;;;;5007588;28;20037;-84
2023/08/31 09:55:29;;;;;;;0.90;0.68;;;21.20;76.10;;;;;;5007072;28;20034;-84
2023/08/31 09:57:58;;;;;;;0.52;0.52;;;21.20;76.40;;;;;;5027442;28;20102;-84
2023/08/31 10:00:28;;;;;;;0.40;0.40;;;21.20;76.50;;;;;;5021653;28;20038;-84
2023/08/31 10:02:55;;;;;;;0.60;0.60;;;21.20;76.30;;;;;;5023360;28;20125;-84
2023/08/31 10:05:21;;;;;;;0.60;0.60;;;21.20;76.20;;;;;;5023781;28;20069;-85
2023/08/31 10:07:47;;;;;;;0.40;0.40;;;21.20;76.10;;;;;;5024777;28;20542;-84
2023/08/31 10:10:13;;;;;;;0.40;0.40;;;21.20;76.20;;;;;;5023139;28;20034;-84
2023/08/31 10:12:39;;;;;;;0.68;0.60;;;21.20;76.20;;;;;;5024807;28;20450;-84
2023/08/31 10:15:05;;;;;;;0.52;0.40;;;21.20;76.10;;;;;;5007921;28;20395;-84
2023/08/31 10:17:31;;;;;;;0.63;0.63;;;21.20;76.20;;;;;;5027845;28;20548;-84
2023/08/31 10:19:56;;;;;;;0.60;0.60;;;21.20;76.20;;;;;;5030590;28;20042;-84
2023/08/31 10:22:22;;;;;;;0.90;0.47;;;21.20;76.30;;;;;;5028063;28;20071;-85
2023/08/31 10:25:03;;;;;;;2.28;0.60;;;21.20;76.00;;;;;;5027685;28;20041;-84
2023/08/31 10:27:35;;;;;;;0.47;0.47;;;21.20;75.60;;;;;;5029411;28;20045;-85
2023/08/31 10:30:24;;;;;;;0.47;0.47;;;21.30;75.40;;;;;;5026168;28;20487;-85
2023/08/31 10:33:08;;;;;;;0.60;0.30;;;21.30;75.00;;;;;;5029309;28;20045;-84
2023/08/31 10:35:54;;;;;;;0.45;0.45;;;21.30;74.60;;;;;;5029452;28;20083;-84
2023/08/31 10:38:32;;;;;;;0.20;0.20;;;21.30;74.60;;;;;;5028462;28;20045;-85
2023/08/31 10:41:07;;;;;;;0.40;0.40;;;21.30;74.20;;;;;;5026406;28;20103;-84
2023/08/31 10:43:52;;;;;;;0.52;0.45;;;21.30;74.20;;;;;;5028998;28;20132;-84
2023/08/31 10:46:41;;;;;;;0.50;0.43;;;21.40;74.20;;;;;;5028868;28;20049;-85
2023/08/31 10:49:14;;;;;;;0.40;0.40;;;21.40;74.40;;;;;;5020878;28;20042;-84
2023/08/31 10:51:43;;;;;;;0.50;0.50;;;21.40;74.30;;;;;;5027723;28;20045;-85
2023/08/31 10:54:13;;;;;;;0.40;0.40;;;21.40;74.30;;;;;;5029826;28;20045;-85
2023/08/31 10:56:57;;;;;;;0.30;0.20;;;21.40;74.40;;;;;;5026326;28;20052;-84
2023/08/31 10:59:24;;;;;;;0.40;0.40;;;21.40;74.40;;;;;;5025687;28;20086;-84
2023/08/31 11:01:56;;;;;;;0.50;0.45;;;21.40;75.50;;;;;;5028392;28;20133;-85
2023/08/31 11:04:27;;;;;;;0.35;0.35;;;21.30;74.60;;;;;;5022262;28;20071;-77
2023/08/31 11:07:13;;;;;;;0.47;0.45;;;21.30;74.60;;;;;;5028986;28;20045;-76
2023/08/31 11:09:39;;;;;;;0.40;0.40;;;21.40;75.00;;;;;;5028839;28;20041;-77
2023/08/31 11:12:05;;;;;;;0.50;0.50;;;21.40;75.20;;;;;;5028391;28;20037;-77
2023/08/31 11:14:30;;;;;;;0.30;0.30;;;21.30;75.10;;;;;;5028470;28;20034;-77
2023/08/31 11:16:56;;;;;;;0.40;0.40;;;21.40;75.20;;;;;;5027979;28;20034;-75
2023/08/31 11:19:21;;;;;;;0.50;0.25;;;21.40;75.30;;;;;;5026682;28;20523;-74
2023/08/31 11:21:47;;;;;;;1.00;0.20;;;21.40;75.30;;;;;;5026215;28;20044;-75
2023/08/31 11:24:13;;;;;;;0.35;0.35;;;21.40;76.40;;;;;;4671086;28;9999934;-74
2023/08/31 11:26:38;;;;;;;0.50;0.50;;;21.30;76.00;;;;;;5020717;28;20111;-75
2023/08/31 11:29:07;;;;;;;0.52;0.40;;;21.40;76.10;;;;;;5022905;28;20129;-75
2023/08/31 11:31:35;;;;;;;0.30;0.30;;;21.40;76.10;;;;;;5024381;28;20163;-74
2023/08/31 11:34:01;;;;;;;0.32;0.32;;;21.40;76.40;;;;;;5023063;28;20049;-73
2023/08/31 11:36:26;;;;;;;0.30;0.30;;;21.40;76.50;;;;;;5023224;28;20049;-75
2023/08/31 11:38:52;;;;;;;0.40;0.40;;;21.40;76.50;;;;;;5023192;28;20585;-76
2023/08/31 11:41:17;;;;;;;0.60;0.60;;;21.40;76.50;;;;;;5023168;28;20052;-75
2023/08/31 11:43:43;;;;;;;0.50;0.50;;;21.40;76.40;;;;;;5022230;28;20049;-75
2023/08/31 11:46:08;;;;;;;1.83;0.50;;;21.40;76.00;;;;;;5025129;28;20064;-80
2023/08/31 11:48:34;;;;;;;0.50;0.50;;;21.40;75.90;;;;;;5020942;28;20060;-81
2023/08/31 11:51:00;;;;;;;0.50;0.50;;;21.40;75.70;;;;;;5022855;28;20045;-78
2023/08/31 11:53:26;;;;;;;0.30;0.30;;;21.50;75.80;;;;;;5027723;28;20116;-78
2023/08/31 11:55:53;;;;;;;1.05;0.28;;;21.50;75.70;;;;;;5024710;28;20499;-79
2023/08/31 11:58:22;;;;;;;0.30;0.30;;;21.40;75.40;;;;;;5028443;28;20065;-79
2023/08/31 12:00:57;;;;;;;0.40;0.40;;;21.40;75.40;;;;;;5027916;28;20087;-78
2023/08/31 12:03:23;;;;;;;0.85;0.35;;;21.50;75.50;;;;;;5023490;28;20065;-78
2023/08/31 12:05:51;;;;;;;0.20;0.20;;;21.50;75.10;;;;;;5026242;28;20059;-78
2023/08/31 12:08:23;;;;;;;0.30;0.30;;;21.40;75.00;;;;;;5027279;28;20049;-78
2023/08/31 12:10:49;;;;;;;0.20;0.20;;;21.40;75.00;;;;;;5026757;28;20037;-78
2023/08/31 12:13:14;;;;;;;0.40;0.40;;;21.50;75.10;;;;;;5028610;28;20068;-79
2023/08/31 12:15:40;;;;;;;0.20;0.20;;;21.40;74.90;;;;;;5026135;28;20087;-78
2023/08/31 12:18:12;;;;;;;0.22;0.22;;;21.50;75.00;;;;;;5027182;28;20170;-78
2023/08/31 12:20:50;;;;;;;0.20;0.20;;;21.40;75.70;;;;;;5024438;28;20044;-79
2023/08/31 12:23:16;;;;;;;0.30;0.30;;;21.50;74.80;;;;;;5026667;28;20076;-78
2023/08/31 12:25:46;;;;;;;0.35;0.20;;;21.40;74.60;;;;;;5027579;28;20026;-78
2023/08/31 12:28:12;;;;;;;0.30;0.30;;;21.40;74.70;;;;;;5027618;28;20106;-78
2023/08/31 12:30:37;;;;;;;0.40;0.40;;;21.50;74.80;;;;;;5027311;28;20041;-79
2023/08/31 12:33:03;;;;;;;0.10;0.10;;;21.50;74.80;;;;;;5023987;28;20083;-78
2023/08/31 12:35:30;;;;;;;1.27;0.50;;;21.40;74.80;;;;;;5026265;28;20045;-78
2023/08/31 12:37:57;;;;;;;0.30;0.30;;;21.50;74.80;;;;;;5025982;28;20033;-74
2023/08/31 12:40:22;;;;;;;0.20;0.20;;;21.50;74.70;;;;;;5027366;28;20124;-78
2023/08/31 12:42:48;;;;;;;1.40;0.28;;;21.50;74.70;;;;;;5027615;28;20160;-79
2023/08/31 12:45:14;;;;;;;0.32;0.32;;;21.50;74.50;;;;;;5026400;28;20099;-79